Time;durP1;ratioP1;P1;durP2;ratioP2;P2;SDS_P1;SDS_P2;PMS_P1;PMS_P2;Temp;Humidity;BMP_temperature;BMP_pressure;BME280_temperature;BME280_humidity;BME280_pressure;Samples;Min_cycle;Max_cycle;Signal;HPM_P1;HPM_P2
2022/06/30 00:00:43;;;;;;;1.30;1.20;;;;;;;23.69;43.63;101159.09;5053648;28;20498;-68
2022/06/30 00:03:09;;;;;;;1.08;1.00;;;;;;;23.69;43.72;101158.28;5053634;28;20052;-67
2022/06/30 00:05:35;;;;;;;1.20;1.10;;;;;;;23.66;43.72;101159.63;5053548;28;20064;-67
2022/06/30 00:08:00;;;;;;;1.20;1.10;;;;;;;23.67;43.50;101155.81;5053798;28;20020;-68
2022/06/30 00:10:26;;;;;;;1.10;1.10;;;;;;;23.67;43.57;101155.81;5053789;28;20460;-67
2022/06/30 00:12:51;;;;;;;1.27;1.17;;;;;;;23.67;43.41;101161.28;5053422;28;20021;-68
2022/06/30 00:15:17;;;;;;;1.15;1.13;;;;;;;23.65;43.19;101157.97;5054155;28;20135;-68
2022/06/30 00:17:42;;;;;;;1.45;1.35;;;;;;;23.65;43.38;101157.16;5053317;28;20020;-68
2022/06/30 00:20:08;;;;;;;1.20;1.10;;;;;;;23.65;43.45;101166.16;5053650;28;20029;-68
2022/06/30 00:22:34;;;;;;;0.93;0.93;;;;;;;23.64;43.21;101167.25;5053604;28;20024;-68
2022/06/30 00:24:59;;;;;;;1.30;1.20;;;;;;;23.65;43.20;101165.34;5053262;28;20506;-68
2022/06/30 00:27:25;;;;;;;1.30;1.20;;;;;;;23.64;43.18;101159.06;5053526;28;20463;-68
2022/06/30 00:29:50;;;;;;;1.35;1.25;;;;;;;23.63;43.52;101162.88;5053259;28;20029;-69
2022/06/30 00:32:16;;;;;;;1.60;1.50;;;;;;;23.62;43.34;101147.56;5053152;28;20032;-68
2022/06/30 00:34:41;;;;;;;1.15;1.13;;;;;;;23.61;43.41;101157.69;5053039;28;20036;-68
2022/06/30 00:37:07;;;;;;;1.20;1.10;;;;;;;23.59;43.38;101159.00;5053401;28;20032;-68
2022/06/30 00:39:32;;;;;;;1.33;1.23;;;;;;;23.60;43.48;101160.66;5064968;28;20024;-68
2022/06/30 00:41:58;;;;;;;1.20;1.20;;;;;;;23.60;43.44;101155.19;5073388;28;20028;-68
2022/06/30 00:44:23;;;;;;;1.17;1.10;;;;;;;23.61;43.28;101162.28;5072992;28;20032;-68
2022/06/30 00:46:49;;;;;;;1.05;1.05;;;;;;;23.60;43.17;101161.47;5073855;28;20077;-68
2022/06/30 00:49:15;;;;;;;1.20;1.10;;;;;;;23.61;43.10;101167.75;5073235;28;20024;-68
2022/06/30 00:51:41;;;;;;;1.40;1.30;;;;;;;23.61;42.98;101168.59;5055476;28;20020;-67
2022/06/30 00:54:06;;;;;;;1.40;1.30;;;;;;;23.59;43.33;101168.03;5073126;28;20025;-67
2022/06/30 00:56:33;;;;;;;1.25;1.15;;;;;;;23.59;43.37;101165.28;5073118;28;20032;-67
2022/06/30 00:59:02;;;;;;;1.20;1.10;;;;;;;23.58;43.22;101165.56;5072911;28;20025;-68
2022/06/30 01:01:27;;;;;;;1.27;1.17;;;;;;;23.58;43.39;101166.38;5072900;28;20478;-67
2022/06/30 01:03:56;;;;;;;1.13;1.02;;;;;;;23.57;43.35;101167.44;5071620;28;20086;-67
2022/06/30 01:06:22;;;;;;;1.17;1.13;;;;;;;23.56;43.32;101165.81;5073187;28;20491;-67
2022/06/30 01:08:48;;;;;;;1.40;1.30;;;;;;;23.56;43.37;101173.13;5073281;28;20082;-68
2022/06/30 01:13:57;;;;;;;1.13;1.02;;;;;;;23.57;43.10;101169.34;5073364;28;20032;-67
2022/06/30 01:16:23;;;;;;;1.25;1.15;;;;;;;23.56;42.93;101174.00;5074000;28;20405;-66
2022/06/30 01:18:48;;;;;;;1.30;1.20;;;;;;;23.55;42.95;101174.25;5073395;28;20025;-68
2022/06/30 01:21:14;;;;;;;1.50;1.40;;;;;;;23.58;42.80;101173.75;5073638;28;20025;-68
2022/06/30 01:23:39;;;;;;;0.80;0.80;;;;;;;23.57;42.90;101172.06;5076887;28;20035;-68
2022/06/30 01:26:05;;;;;;;1.10;1.00;;;;;;;23.55;43.22;101161.41;5077100;28;20436;-68
2022/06/30 01:28:30;;;;;;;1.33;1.23;;;;;;;23.56;43.06;101162.22;5078042;28;20470;-67
2022/06/30 01:30:56;;;;;;;1.10;1.10;;;;;;;23.55;42.99;101168.78;5077746;28;20058;-67
2022/06/30 01:33:21;;;;;;;1.05;1.05;;;;;;;23.55;43.10;101163.31;5077214;28;20459;-67
2022/06/30 01:35:47;;;;;;;1.30;1.20;;;;;;;23.56;43.05;101156.78;5077673;28;20027;-67
2022/06/30 01:38:12;;;;;;;1.30;1.20;;;;;;;23.55;43.10;101163.31;5075637;28;20036;-67
2022/06/30 01:40:39;;;;;;;1.13;1.02;;;;;;;23.55;42.92;101163.31;5057003;28;20033;-69
2022/06/30 01:43:11;;;;;;;1.38;1.27;;;;;;;23.53;43.06;101168.22;5057257;28;20044;-67
2022/06/30 01:45:37;;;;;;;1.20;1.10;;;;;;;23.53;42.97;101168.22;5057600;28;20025;-67
2022/06/30 01:48:02;;;;;;;1.40;1.30;;;;;;;23.53;43.00;101168.22;5056974;28;20047;-67
2022/06/30 01:50:29;;;;;;;1.33;1.23;;;;;;;23.52;42.96;101170.09;5057062;28;20162;-67
2022/06/30 01:52:54;;;;;;;1.30;1.20;;;;;;;23.51;43.11;101176.66;5056448;28;20017;-67
2022/06/30 01:55:20;;;;;;;1.30;1.20;;;;;;;23.49;43.20;101181.56;5056285;28;20553;-68
2022/06/30 01:57:46;;;;;;;1.20;1.10;;;;;;;23.51;43.20;101179.38;5056824;28;20016;-67
2022/06/30 02:00:14;;;;;;;1.10;1.10;;;;;;;23.49;43.09;101184.28;5056626;28;20100;-68
2022/06/30 02:02:39;;;;;;;1.40;1.30;;;;;;;23.51;43.14;101181.25;5056458;28;20074;-67
2022/06/30 02:05:06;;;;;;;1.20;1.10;;;;;;;23.50;43.06;101183.19;5055947;28;20430;-67
2022/06/30 02:07:35;;;;;;;1.08;1.08;;;;;;;23.51;43.34;101184.84;5056601;28;20104;-67
2022/06/30 02:10:01;;;;;;;1.33;1.23;;;;;;;23.50;43.27;101182.38;5056154;28;20048;-67
2022/06/30 02:12:45;;;;;;;1.70;1.17;;;;;;;23.52;43.21;101185.66;5056236;28;20464;-67
2022/06/30 02:15:23;;;;;;;1.42;1.20;;;;;;;23.52;43.28;101181.00;5056153;28;20040;-68
2022/06/30 02:17:53;;;;;;;1.00;1.00;;;;;;;23.51;43.20;101179.38;5056352;28;20035;-68
2022/06/30 02:20:21;;;;;;;1.30;1.20;;;;;;;23.51;43.29;101178.53;5056198;28;20029;-68
2022/06/30 02:22:47;;;;;;;1.40;1.30;;;;;;;23.49;43.11;101181.56;5056257;28;20094;-67
2022/06/30 02:25:13;;;;;;;1.67;1.17;;;;;;;23.49;43.16;101180.69;5055397;28;20102;-67
2022/06/30 02:27:38;;;;;;;1.08;1.00;;;;;;;23.50;43.22;101182.38;5056484;28;20029;-67
2022/06/30 02:30:06;;;;;;;1.55;1.30;;;;;;;23.50;43.11;101182.38;5055760;28;20356;-68
2022/06/30 02:32:31;;;;;;;1.20;1.10;;;;;;;23.49;43.12;101188.88;5055661;28;20021;-67
2022/06/30 02:34:56;;;;;;;1.05;1.02;;;;;;;23.48;43.15;101185.34;5054032;28;20025;-67
2022/06/30 02:37:22;;;;;;;1.33;1.23;;;;;;;23.47;42.82;101175.50;5055196;28;20024;-69
2022/06/30 02:39:47;;;;;;;1.00;1.00;;;;;;;23.47;42.79;101180.13;5067584;28;20025;-69
2022/06/30 02:42:13;;;;;;;0.90;0.90;;;;;;;23.48;43.10;101184.53;5075422;28;20367;-69
2022/06/30 02:44:38;;;;;;;1.00;1.00;;;;;;;23.48;43.13;101189.97;5075345;28;20320;-68
2022/06/30 02:47:04;;;;;;;1.02;1.02;;;;;;;23.48;43.10;101195.44;5075351;28;20482;-68
2022/06/30 02:49:29;;;;;;;0.98;0.90;;;;;;;23.48;42.98;101189.97;5075140;28;20412;-68
2022/06/30 02:51:55;;;;;;;1.40;1.30;;;;;;;23.47;43.09;101194.59;5075247;28;20029;-68
2022/06/30 02:54:20;;;;;;;1.30;1.20;;;;;;;23.47;43.20;101188.31;5074770;28;20017;-68
2022/06/30 02:56:47;;;;;;;1.30;1.20;;;;;;;23.48;43.06;101189.97;5074810;28;20028;-67
2022/06/30 02:59:12;;;;;;;0.90;0.90;;;;;;;23.48;43.20;101184.53;5074822;28;20497;-67
2022/06/30 03:01:38;;;;;;;1.25;1.15;;;;;;;23.47;43.42;101189.13;5075217;28;20024;-67
2022/06/30 03:04:04;;;;;;;1.25;1.05;;;;;;;23.46;43.46;101197.56;5075067;28;20032;-68
2022/06/30 03:06:31;;;;;;;1.25;1.15;;;;;;;23.45;43.25;101199.47;5073376;28;20470;-68
2022/06/30 03:08:57;;;;;;;0.80;0.80;;;;;;;23.46;43.65;101203.88;5074937;28;20024;-68
2022/06/30 03:11:23;;;;;;;1.30;1.20;;;;;;;23.43;43.58;101199.72;5074928;28;20035;-68
2022/06/30 03:13:48;;;;;;;1.08;1.08;;;;;;;23.41;43.99;101201.91;5074685;28;20024;-68
2022/06/30 03:16:14;;;;;;;1.20;1.02;;;;;;;23.44;43.56;101195.94;5074790;28;20016;-68
2022/06/30 03:18:39;;;;;;;1.25;1.15;;;;;;;23.43;43.68;101205.19;5074646;28;20106;-68
2022/06/30 03:21:05;;;;;;;1.17;1.08;;;;;;;23.43;43.85;101210.66;5055886;28;20093;-66
2022/06/30 03:23:30;;;;;;;0.90;0.90;;;;;;;23.46;44.01;101203.03;5074617;28;20036;-67
2022/06/30 03:25:55;;;;;;;1.10;1.05;;;;;;;23.46;43.87;101203.88;5074152;28;20052;-67
2022/06/30 03:28:21;;;;;;;1.30;1.20;;;;;;;23.47;43.88;101204.69;5074537;28;20463;-67
2022/06/30 03:30:47;;;;;;;1.20;1.10;;;;;;;23.47;43.92;101210.16;5074753;28;20444;-69
2022/06/30 03:33:14;;;;;;;1.10;1.00;;;;;;;23.47;43.99;101205.50;5074345;28;20031;-68
2022/06/30 03:35:39;;;;;;;1.20;1.10;;;;;;;23.46;44.02;101213.94;5074390;28;20033;-67
2022/06/30 03:38:06;;;;;;;1.17;1.10;;;;;;;23.48;43.75;101211.81;5073947;28;20031;-67
2022/06/30 03:40:31;;;;;;;1.20;1.10;;;;;;;23.49;44.00;101216.16;5056778;28;20033;-67
2022/06/30 03:42:57;;;;;;;1.52;1.42;;;;;;;23.49;43.76;101217.00;5054182;28;20053;-68
2022/06/30 03:45:22;;;;;;;1.17;1.10;;;;;;;23.48;43.96;101218.06;5053878;28;20094;-67
2022/06/30 03:47:48;;;;;;;1.27;1.15;;;;;;;23.49;43.84;101217.00;5054229;28;20104;-67
2022/06/30 03:50:13;;;;;;;1.30;1.20;;;;;;;23.52;43.55;101223.84;5054069;28;20099;-67
2022/06/30 03:52:39;;;;;;;1.15;1.10;;;;;;;23.51;43.66;101216.72;5054074;28;20021;-67
2022/06/30 03:55:04;;;;;;;1.20;1.10;;;;;;;23.53;43.63;101222.78;5053836;28;20029;-67
2022/06/30 03:57:30;;;;;;;1.13;1.00;;;;;;;23.55;43.55;101221.44;5053556;28;20039;-67
2022/06/30 03:59:56;;;;;;;1.10;1.00;;;;;;;23.57;43.54;101222.00;5053525;28;20032;-67
2022/06/30 04:02:21;;;;;;;1.00;1.00;;;;;;;23.56;43.54;101214.91;5053374;28;20467;-67
2022/06/30 04:04:47;;;;;;;1.00;0.90;;;;;;;23.59;43.23;101219.03;5053730;28;20028;-68
2022/06/30 04:07:12;;;;;;;1.48;1.38;;;;;;;23.59;43.23;101213.56;5053358;28;20498;-68
2022/06/30 04:09:37;;;;;;;1.00;1.00;;;;;;;23.63;43.28;101226.44;5053305;28;20032;-67
2022/06/30 04:12:03;;;;;;;1.30;1.20;;;;;;;23.65;42.86;101219.94;5053286;28;20025;-67
2022/06/30 04:14:31;;;;;;;1.00;1.00;;;;;;;23.68;42.75;101222.97;5053144;28;20025;-67
2022/06/30 04:16:57;;;;;;;0.98;0.98;;;;;;;23.69;42.69;101226.50;5053271;28;20032;-67
2022/06/30 04:19:23;;;;;;;1.17;1.10;;;;;;;23.70;42.69;101220.81;5053196;28;20025;-67
2022/06/30 04:21:49;;;;;;;1.63;1.00;;;;;;;23.74;42.08;101221.94;5053607;28;20045;-67
2022/06/30 04:24:14;;;;;;;1.20;1.10;;;;;;;23.74;42.14;101215.66;5052953;28;20073;-67
2022/06/30 04:26:40;;;;;;;1.73;1.10;;;;;;;23.75;41.93;101218.13;5053134;28;20021;-67
2022/06/30 04:29:05;;;;;;;1.17;1.08;;;;;;;23.78;41.88;101217.63;5052905;28;20040;-67
2022/06/30 04:34:15;;;;;;;1.23;1.13;;;;;;;23.84;41.77;101225.91;5053053;28;20044;-67
2022/06/30 04:36:40;;;;;;;1.85;1.42;;;;;;;23.84;41.54;101223.19;5053033;28;20033;-67
2022/06/30 04:39:06;;;;;;;1.08;0.98;;;;;;;23.86;41.46;101224.56;5057880;28;20044;-68
2022/06/30 04:41:31;;;;;;;2.15;1.30;;;;;;;23.89;41.47;101228.69;5073276;28;20024;-68
2022/06/30 04:43:58;;;;;;;1.08;0.98;;;;;;;23.90;41.43;101219.41;5072908;28;20032;-67
2022/06/30 04:46:23;;;;;;;0.93;0.93;;;;;;;23.92;41.01;101219.97;5073318;28;20377;-68
2022/06/30 04:48:49;;;;;;;1.00;0.90;;;;;;;23.93;41.05;101218.91;5072000;28;20025;-68
2022/06/30 04:51:15;;;;;;;1.00;0.90;;;;;;;23.95;40.83;101220.28;5071903;28;20500;-67
2022/06/30 04:53:41;;;;;;;1.00;0.98;;;;;;;23.96;40.92;101207.47;5073055;28;20442;-67
2022/06/30 04:56:08;;;;;;;0.90;0.80;;;;;;;23.98;41.07;101216.22;5072597;28;20043;-67
2022/06/30 04:58:33;;;;;;;0.90;0.90;;;;;;;23.95;40.99;101206.63;5070727;28;20024;-66
2022/06/30 05:00:58;;;;;;;1.10;1.00;;;;;;;24.02;40.40;101217.34;5072845;28;20063;-66
2022/06/30 05:03:24;;;;;;;1.00;0.90;;;;;;;24.03;40.62;101219.00;5072541;28;20086;-68
2022/06/30 05:05:49;;;;;;;0.95;0.95;;;;;;;24.03;40.67;101213.53;5072990;28;20031;-68
2022/06/30 05:08:15;;;;;;;0.90;0.90;;;;;;;24.05;40.38;101216.84;5072978;28;20020;-68
2022/06/30 05:10:40;;;;;;;0.93;0.90;;;;;;;24.06;40.69;101215.75;5072887;28;20467;-68
2022/06/30 05:13:07;;;;;;;0.85;0.85;;;;;;;24.07;40.42;101214.66;5072983;28;20099;-68
2022/06/30 05:15:35;;;;;;;1.17;1.00;;;;;;;24.09;40.51;101211.69;5072446;28;20033;-68
2022/06/30 05:18:01;;;;;;;0.93;0.93;;;;;;;24.07;40.42;101219.31;5072709;28;20025;-69
2022/06/30 05:20:26;;;;;;;0.90;0.90;;;;;;;24.07;40.24;101214.66;5073670;28;20075;-68
2022/06/30 05:22:52;;;;;;;0.80;0.80;;;;;;;24.09;40.54;101215.22;5072084;28;20025;-68
2022/06/30 05:28:03;;;;;;;0.70;0.70;;;;;;;24.13;40.57;101219.09;5072695;28;20121;-68
2022/06/30 05:30:28;;;;;;;0.88;0.88;;;;;;;24.13;40.27;101218.28;5072754;28;20106;-67
2022/06/30 05:32:54;;;;;;;1.08;0.98;;;;;;;24.17;39.93;101230.34;5072265;28;20016;-67
2022/06/30 05:35:19;;;;;;;1.20;1.00;;;;;;;24.17;40.39;101220.22;5070927;28;20029;-67
2022/06/30 05:37:45;;;;;;;2.58;1.05;;;;;;;24.19;40.17;101230.88;5071768;28;20510;-67
2022/06/30 05:40:13;;;;;;;1.48;1.38;;;;;;;24.15;40.04;101227.03;5060226;28;20463;-67
2022/06/30 05:42:39;;;;;;;1.45;1.00;;;;;;;24.18;40.05;101221.88;5052529;28;20029;-67
2022/06/30 05:45:04;;;;;;;1.13;1.02;;;;;;;24.15;39.95;101218.84;5052637;28;20418;-67
2022/06/30 05:47:30;;;;;;;0.70;0.70;;;;;;;24.18;40.07;101221.03;5052246;28;20029;-67
2022/06/30 05:49:55;;;;;;;0.77;0.77;;;;;;;24.22;40.20;101221.38;5052201;28;20028;-67
2022/06/30 05:52:21;;;;;;;1.20;1.00;;;;;;;24.21;39.91;101222.44;5052471;28;20017;-67
2022/06/30 05:54:46;;;;;;;0.80;0.80;;;;;;;24.22;40.10;101222.19;5052140;28;20471;-68
2022/06/30 05:57:12;;;;;;;1.42;0.80;;;;;;;24.25;39.81;101220.84;5051986;28;20025;-68
2022/06/30 05:59:37;;;;;;;4.22;0.90;;;;;;;24.22;39.76;101222.19;5052113;28;20063;-68
2022/06/30 06:02:03;;;;;;;0.90;0.90;;;;;;;24.16;40.19;101220.47;5052270;28;20498;-68
2022/06/30 06:04:28;;;;;;;0.85;0.85;;;;;;;24.18;40.04;101226.50;5052777;28;20460;-68
2022/06/30 06:06:54;;;;;;;1.10;0.95;;;;;;;24.14;39.76;101220.72;5052152;28;20032;-68
2022/06/30 06:09:19;;;;;;;1.30;1.20;;;;;;;24.18;40.02;101215.56;5054286;28;20028;-68
2022/06/30 06:11:45;;;;;;;0.90;0.85;;;;;;;24.21;40.08;101219.72;5054652;28;20478;-69
2022/06/30 06:14:10;;;;;;;0.80;0.80;;;;;;;24.24;39.73;101219.19;5055680;28;20029;-68
2022/06/30 06:16:36;;;;;;;0.90;0.90;;;;;;;24.21;39.63;101219.72;5055855;28;20028;-67
2022/06/30 06:19:01;;;;;;;0.90;0.90;;;;;;;24.14;39.99;101220.72;5055861;28;20021;-67
2022/06/30 06:21:26;;;;;;;1.10;1.00;;;;;;;24.24;39.97;101213.75;5055650;28;20021;-67
2022/06/30 06:23:53;;;;;;;1.00;0.90;;;;;;;24.24;39.71;101213.75;5055398;28;20079;-67
2022/06/30 06:26:18;;;;;;;0.90;0.90;;;;;;;24.23;39.22;101206.63;5055508;28;20021;-68
2022/06/30 06:31:28;;;;;;;1.42;1.02;;;;;;;24.28;39.60;101212.13;5055287;28;20071;-68
2022/06/30 06:33:53;;;;;;;0.98;0.80;;;;;;;24.26;39.55;101212.38;5053814;28;20056;-67
2022/06/30 06:36:19;;;;;;;1.38;0.80;;;;;;;24.34;39.52;101208.38;5055151;28;20021;-68
2022/06/30 06:38:44;;;;;;;1.00;0.90;;;;;;;24.31;39.45;101211.63;5055358;28;20025;-68
2022/06/30 06:41:09;;;;;;;0.90;0.88;;;;;;;24.27;39.35;101207.75;5073642;28;20429;-68
2022/06/30 06:43:35;;;;;;;1.20;0.82;;;;;;;24.26;39.28;101200.66;5075213;28;20028;-69
2022/06/30 06:46:00;;;;;;;50.72;17.17;;;;;;;24.36;39.42;101208.94;5075351;28;20063;-66
2022/06/30 06:48:26;;;;;;;35.55;11.82;;;;;;;24.35;39.04;101216.31;5074857;28;20025;-66
2022/06/30 06:50:51;;;;;;;19.42;6.97;;;;;;;24.41;38.79;101219.91;5075035;28;20020;-68
2022/06/30 06:53:17;;;;;;;14.13;5.13;;;;;;;24.41;38.92;101219.09;5074949;28;20408;-66
2022/06/30 06:55:43;;;;;;;7.45;3.10;;;;;;;24.38;39.05;101218.50;5074926;28;20025;-66
2022/06/30 06:58:10;;;;;;;5.15;3.05;;;;;;;24.42;38.72;101227.00;5074816;28;20024;-68
2022/06/30 07:00:35;;;;;;;4.25;2.20;;;;;;;24.42;38.82;101223.44;5075088;28;20032;-68
2022/06/30 07:03:01;;;;;;;4.20;2.08;;;;;;;24.44;38.94;101216.66;5074829;28;20025;-68
2022/06/30 07:05:26;;;;;;;9.45;3.97;;;;;;;24.47;38.42;101223.50;5074765;28;20378;-68
2022/06/30 07:07:59;;;;;;;6.65;3.20;;;;;;;24.48;38.33;101219.69;5074432;28;20371;-67
2022/06/30 07:10:25;;;;;;;7.38;3.55;;;;;;;24.48;38.73;101220.50;5074177;28;20035;-69
2022/06/30 07:12:50;;;;;;;6.40;2.95;;;;;;;24.46;38.63;101210.94;5074646;28;20099;-70
2022/06/30 07:15:16;;;;;;;4.03;2.40;;;;;;;24.37;38.81;101218.78;5074382;28;20017;-68
2022/06/30 07:17:41;;;;;;;5.65;2.10;;;;;;;24.39;38.88;101216.59;5074236;28;20463;-68
2022/06/30 07:20:07;;;;;;;4.70;2.05;;;;;;;24.43;38.62;101225.09;5073486;28;20028;-68
2022/06/30 07:22:34;;;;;;;2.58;1.60;;;;;;;24.49;38.89;101227.63;5074307;28;20033;-68
2022/06/30 07:24:59;;;;;;;1.98;1.52;;;;;;;24.47;38.56;101229.78;5074440;28;20048;-69
2022/06/30 07:27:25;;;;;;;1.92;1.30;;;;;;;24.46;38.76;101232.78;5074749;28;20363;-70
2022/06/30 07:29:50;;;;;;;2.03;1.52;;;;;;;24.48;38.65;101223.22;5074284;28;20462;-69
2022/06/30 07:32:15;;;;;;;1.70;1.10;;;;;;;24.50;38.51;101229.25;5073995;28;20028;-69
2022/06/30 07:34:41;;;;;;;2.53;1.48;;;;;;;24.51;37.89;101241.03;5074383;28;20031;-69
2022/06/30 07:37:06;;;;;;;1.98;1.00;;;;;;;24.47;38.21;101228.94;5074520;28;20374;-68
2022/06/30 07:39:33;;;;;;;2.38;1.42;;;;;;;24.50;38.11;101228.44;5069941;28;20041;-68
2022/06/30 07:41:58;;;;;;;1.63;1.08;;;;;;;24.49;38.07;101230.34;5053734;28;20021;-69
2022/06/30 07:44:24;;;;;;;2.40;1.10;;;;;;;24.46;38.11;101233.59;5054493;28;20040;-67
2022/06/30 07:46:49;;;;;;;1.23;1.13;;;;;;;24.37;37.81;101241.44;5054014;28;20430;-68
2022/06/30 07:49:15;;;;;;;1.48;1.10;;;;;;;24.46;37.54;101241.81;5054435;28;20452;-68
2022/06/30 07:51:40;;;;;;;0.93;0.80;;;;;;;24.44;37.35;101235.78;5054331;28;20468;-67
2022/06/30 07:54:06;;;;;;;1.23;0.88;;;;;;;24.47;37.41;101234.41;5053466;28;20144;-68
2022/06/30 07:56:32;;;;;;;1.63;1.00;;;;;;;24.45;37.57;101236.59;5053174;28;20029;-67
2022/06/30 07:58:58;;;;;;;2.35;0.90;;;;;;;24.42;37.22;101229.72;5053556;28;20048;-67
2022/06/30 08:01:23;;;;;;;1.10;1.00;;;;;;;24.41;36.81;101230.81;5053555;28;20095;-68
2022/06/30 08:03:49;;;;;;;1.20;1.00;;;;;;;24.38;36.69;101221.22;5053988;28;20083;-68
2022/06/30 08:06:14;;;;;;;1.27;1.10;;;;;;;24.45;37.24;101222.94;5055050;28;20426;-68
2022/06/30 08:08:40;;;;;;;1.73;1.20;;;;;;;24.46;37.14;101233.59;5053411;28;20410;-67
2022/06/30 08:11:06;;;;;;;1.38;1.00;;;;;;;24.37;37.14;101227.78;5053523;28;20351;-67
2022/06/30 08:13:31;;;;;;;1.90;1.05;;;;;;;24.35;36.09;101227.22;5053239;28;20051;-69
2022/06/30 08:15:57;;;;;;;1.77;1.10;;;;;;;24.40;36.53;101229.16;5053595;28;20348;-68
2022/06/30 08:18:22;;;;;;;3.05;1.10;;;;;;;24.44;36.52;101229.47;5053485;28;20349;-68
2022/06/30 08:20:48;;;;;;;0.90;0.80;;;;;;;24.51;36.22;101224.63;5054072;28;20029;-68
2022/06/30 08:23:14;;;;;;;1.27;0.95;;;;;;;24.46;35.90;101228.13;5053059;28;20028;-68
2022/06/30 08:25:39;;;;;;;0.77;0.77;;;;;;;24.45;36.31;101231.13;5052684;28;20033;-68
2022/06/30 08:28:05;;;;;;;2.80;1.05;;;;;;;24.54;35.84;101241.34;5052722;28;20494;-68
2022/06/30 08:30:31;;;;;;;1.17;1.08;;;;;;;24.47;35.70;101235.22;5051615;28;20082;-68
2022/06/30 08:32:56;;;;;;;1.60;1.00;;;;;;;24.52;35.71;101238.00;5052632;28;20115;-68
2022/06/30 08:35:22;;;;;;;0.90;0.90;;;;;;;24.48;35.07;101234.16;5054696;28;20114;-68
2022/06/30 08:37:47;;;;;;;1.08;0.90;;;;;;;24.47;34.87;101229.78;5053575;28;20025;-68
2022/06/30 08:42:57;;;;;;;1.17;0.80;;;;;;;24.47;34.86;101234.41;5073695;28;20569;-67
2022/06/30 08:45:24;;;;;;;1.33;0.65;;;;;;;24.46;34.31;101228.13;5072635;28;20097;-67
2022/06/30 08:47:49;;;;;;;0.80;0.80;;;;;;;24.49;34.57;101230.34;5056791;28;20078;-68
2022/06/30 08:50:16;;;;;;;0.75;0.75;;;;;;;24.50;34.56;101229.25;5071456;28;20028;-68
2022/06/30 08:52:45;;;;;;;1.00;0.90;;;;;;;24.51;34.49;101224.63;5072924;28;20028;-69
2022/06/30 08:55:15;;;;;;;1.10;1.00;;;;;;;24.52;34.66;101224.34;5072484;28;20520;-68
2022/06/30 08:57:41;;;;;;;0.93;0.80;;;;;;;24.51;34.26;101219.97;5071424;28;20077;-68
2022/06/30 09:00:08;;;;;;;0.90;0.80;;;;;;;24.50;34.09;101220.25;5072495;28;20035;-67
2022/06/30 09:02:33;;;;;;;0.93;0.85;;;;;;;24.52;33.90;101215.34;5072357;28;20024;-67
2022/06/30 09:04:58;;;;;;;0.82;0.80;;;;;;;24.49;34.03;101211.22;5073327;28;20035;-68
2022/06/30 09:07:24;;;;;;;1.60;0.90;;;;;;;24.57;33.80;101220.06;5072943;28;20528;-69
2022/06/30 09:09:49;;;;;;;1.10;0.90;;;;;;;24.53;33.92;101212.34;5072906;28;20506;-68
2022/06/30 09:12:16;;;;;;;0.73;0.73;;;;;;;24.49;33.39;101215.84;5072564;28;20017;-68
2022/06/30 09:14:42;;;;;;;1.08;0.85;;;;;;;24.54;33.16;101219.50;5072762;28;20074;-68
2022/06/30 09:17:17;;;;;;;2.25;1.30;;;;;;;24.56;33.43;101216.50;5072261;28;20048;-68
2022/06/30 09:20:00;;;;;;;1.40;0.90;;;;;;;24.59;33.15;101220.63;5072710;28;20536;-68
2022/06/30 09:22:26;;;;;;;1.60;1.00;;;;;;;24.53;33.10;101217.81;5071075;28;20071;-68
2022/06/30 09:24:59;;;;;;;2.95;0.90;;;;;;;24.60;33.12;101225.00;5072070;28;20037;-69
2022/06/30 09:27:27;;;;;;;3.33;1.10;;;;;;;24.55;33.14;101229.31;5072018;28;20463;-70
2022/06/30 09:29:53;;;;;;;0.85;0.80;;;;;;;24.54;33.28;101229.59;5072797;28;20032;-68
2022/06/30 09:32:19;;;;;;;0.75;0.70;;;;;;;24.55;32.95;101218.41;5072159;28;20131;-69
2022/06/30 09:34:44;;;;;;;1.58;0.95;;;;;;;24.61;32.94;101224.75;5072258;28;20078;-67
2022/06/30 09:37:18;;;;;;;0.82;0.70;;;;;;;24.58;32.90;101216.22;5072345;28;20075;-68
2022/06/30 09:39:44;;;;;;;0.65;0.65;;;;;;;24.58;32.70;101213.50;5070035;28;20048;-68
2022/06/30 09:42:12;;;;;;;0.80;0.70;;;;;;;24.63;32.52;101208.06;5052325;28;20025;-69
2022/06/30 09:44:42;;;;;;;0.63;0.63;;;;;;;24.64;32.67;101216.00;5055363;28;20044;-68
2022/06/30 09:47:08;;;;;;;0.93;0.70;;;;;;;24.66;32.31;101211.09;5038212;28;20037;-69
2022/06/30 09:49:43;;;;;;;0.55;0.55;;;;;;;24.65;32.43;101228.59;5056185;28;20025;-68
2022/06/30 09:52:16;;;;;;;0.70;0.70;;;;;;;24.65;32.35;101219.59;5055749;28;20032;-68
2022/06/30 09:54:51;;;;;;;1.13;0.93;;;;;;;24.72;32.29;101220.19;5054467;28;20025;-67
2022/06/30 09:57:17;;;;;;;0.70;0.70;;;;;;;24.68;32.30;101211.69;5055759;28;20424;-68
2022/06/30 09:59:42;;;;;;;1.15;0.82;;;;;;;24.65;31.82;101211.38;5054364;28;20033;-67
2022/06/30 10:02:09;;;;;;;0.70;0.70;;;;;;;24.67;31.90;101206.47;5055719;28;20021;-69
2022/06/30 10:04:54;;;;;;;0.65;0.63;;;;;;;24.77;31.93;101206.53;5055792;28;20029;-69
2022/06/30 10:07:21;;;;;;;3.47;2.35;;;;;;;24.65;32.08;101203.19;5055441;28;20104;-68
2022/06/30 10:09:47;;;;;;;16.48;7.53;;;;;;;24.66;31.82;101210.28;5055725;28;20021;-69
2022/06/30 10:12:12;;;;;;;7.57;4.03;;;;;;;24.70;31.75;101203.22;5053860;28;20112;-68
2022/06/30 10:14:38;;;;;;;4.70;2.00;;;;;;;24.70;31.52;101205.97;5055780;28;20036;-69
2022/06/30 10:17:05;;;;;;;5.07;1.73;;;;;;;24.69;31.56;101209.75;5053952;28;20078;-68
2022/06/30 10:19:30;;;;;;;2.60;1.33;;;;;;;24.69;31.93;101215.22;5054308;28;20025;-69
2022/06/30 10:21:56;;;;;;;2.08;1.23;;;;;;;24.69;31.91;101212.50;5055863;28;20047;-68
2022/06/30 10:24:22;;;;;;;11.32;4.75;;;;;;;24.72;31.53;101215.53;5053567;28;20067;-68
2022/06/30 10:29:31;;;;;;;7.88;2.92;;;;;;;24.77;31.33;101212.00;5054163;28;20044;-68
2022/06/30 10:32:12;;;;;;;5.03;2.22;;;;;;;24.77;30.90;101217.47;5037319;28;20025;-68
2022/06/30 10:34:40;;;;;;;5.13;2.00;;;;;;;24.76;30.56;101226.75;5037603;28;20021;-69
2022/06/30 10:37:08;;;;;;;2.60;1.52;;;;;;;24.77;30.36;101222.09;5037385;28;20033;-69
2022/06/30 10:39:36;;;;;;;3.10;1.70;;;;;;;24.76;30.54;101215.81;5053550;28;20032;-67
2022/06/30 10:42:02;;;;;;;3.70;1.27;;;;;;;24.78;30.43;101210.09;5075033;28;20024;-67
2022/06/30 10:44:29;;;;;;;2.03;1.40;;;;;;;24.79;30.01;101219.94;5075227;28;20071;-68
2022/06/30 10:46:57;;;;;;;1.73;1.13;;;;;;;24.76;30.03;101204.88;5073878;28;20069;-69
2022/06/30 10:49:24;;;;;;;2.15;1.17;;;;;;;24.77;29.91;101212.00;5075032;28;20099;-68
2022/06/30 10:51:50;;;;;;;1.85;1.20;;;;;;;24.82;29.86;101213.94;5075122;28;20032;-69
2022/06/30 10:54:31;;;;;;;1.10;1.00;;;;;;;24.82;29.92;101213.94;5074686;28;20020;-68
2022/06/30 10:56:57;;;;;;;1.45;1.00;;;;;;;24.77;29.78;101206.53;5074475;28;20021;-68
2022/06/30 10:59:32;;;;;;;1.00;0.80;;;;;;;24.82;29.83;101203.84;5075567;28;20025;-69
2022/06/30 11:02:07;;;;;;;2.05;1.10;;;;;;;24.82;29.55;101198.38;5074567;28;20115;-69
2022/06/30 11:04:33;;;;;;;0.68;0.68;;;;;;;24.81;29.38;101185.78;5075500;28;20029;-69
2022/06/30 11:07:01;;;;;;;0.98;0.77;;;;;;;24.77;29.56;101187.41;5074505;28;20047;-68
2022/06/30 11:09:45;;;;;;;2.47;0.95;;;;;;;24.83;29.52;101191.00;5073202;28;20040;-68
2022/06/30 11:12:11;;;;;;;1.02;0.90;;;;;;;24.81;29.48;101194.00;5074808;28;20037;-69
2022/06/30 11:14:48;;;;;;;0.70;0.70;;;;;;;24.88;29.84;101199.22;5074278;28;20534;-69
2022/06/30 11:17:17;;;;;;;0.73;0.60;;;;;;;24.81;29.63;101190.44;5073320;28;20028;-68
2022/06/30 11:19:43;;;;;;;1.10;0.70;;;;;;;24.83;29.81;101194.53;5075207;28;20162;-68
2022/06/30 11:22:09;;;;;;;1.30;0.80;;;;;;;24.82;29.95;101192.91;5074376;28;20455;-69
2022/06/30 11:24:36;;;;;;;0.93;0.80;;;;;;;24.83;29.89;101199.19;5056166;28;20044;-69
2022/06/30 11:29:46;;;;;;;0.90;0.90;;;;;;;24.85;29.97;101195.13;5074365;28;20032;-70
2022/06/30 11:32:11;;;;;;;0.60;0.60;;;;;;;24.82;29.86;101192.06;5073909;28;20414;-68
2022/06/30 11:34:38;;;;;;;0.82;0.80;;;;;;;24.86;29.68;101190.47;5074133;28;20100;-67
2022/06/30 11:37:03;;;;;;;1.92;0.90;;;;;;;24.87;30.21;101190.22;5074001;28;20025;-67
2022/06/30 11:39:29;;;;;;;1.45;0.90;;;;;;;24.83;30.27;101186.34;5074532;28;20040;-68